createdAt,value
2023-01-29T00:00:12.722Z,89.00
2023-01-29T00:01:12.629Z,89.21
2023-01-29T00:02:13.189Z,89.25
2023-01-29T00:03:12.669Z,88.93
2023-01-29T00:04:12.616Z,89.04
2023-01-29T00:05:27.073Z,89.14
2023-01-29T00:06:13.627Z,89.46
2023-01-29T00:07:13.367Z,89.67
2023-01-29T00:08:12.550Z,89.87
2023-01-29T00:09:12.539Z,89.98
2023-01-29T00:10:12.556Z,90.09
2023-01-29T00:11:12.560Z,89.98
2023-01-29T00:12:12.518Z,89.98
2023-01-29T00:13:12.486Z,89.77
2023-01-29T00:14:12.488Z,89.56
2023-01-29T00:15:12.496Z,89.77
2023-01-29T00:16:12.478Z,89.77
2023-01-29T00:17:12.498Z,89.67
2023-01-29T00:18:12.450Z,89.87
2023-01-29T00:19:12.436Z,90.15
2023-01-29T00:20:12.471Z,90.05
2023-01-29T00:21:12.418Z,89.94
2023-01-29T00:22:13.214Z,89.94
2023-01-29T00:23:12.401Z,90.05
2023-01-29T00:24:12.471Z,89.94
2023-01-29T00:25:12.373Z,89.94
2023-01-29T00:26:12.384Z,89.84
2023-01-29T00:27:12.352Z,89.94
2023-01-29T00:28:12.381Z,89.94
2023-01-29T00:29:12.339Z,89.94
2023-01-29T00:30:12.337Z,89.94
2023-01-29T00:31:12.404Z,89.94
2023-01-29T00:32:12.461Z,90.05
2023-01-29T00:33:12.293Z,90.05
2023-01-29T00:34:12.305Z,90.05
2023-01-29T00:35:12.316Z,90.30
2023-01-29T00:36:12.273Z,90.40
2023-01-29T00:37:12.263Z,90.61
2023-01-29T00:38:12.304Z,90.57
2023-01-29T00:39:12.222Z,90.47
2023-01-29T00:40:12.232Z,90.57
2023-01-29T00:41:12.213Z,90.47
2023-01-29T00:42:12.207Z,90.47
2023-01-29T00:43:12.192Z,90.57
2023-01-29T00:44:12.200Z,90.47
2023-01-29T00:45:12.164Z,90.78
2023-01-29T00:46:12.198Z,90.67
2023-01-29T00:47:12.153Z,90.36
2023-01-29T00:48:12.145Z,90.57
2023-01-29T00:49:12.123Z,90.36
2023-01-29T00:50:12.131Z,90.78
2023-01-29T00:51:12.104Z,90.99
2023-01-29T00:52:12.132Z,90.92
2023-01-29T00:53:12.115Z,91.03
2023-01-29T00:54:12.084Z,91.35
2023-01-29T00:55:12.090Z,91.24
2023-01-29T00:56:12.054Z,91.24
2023-01-29T00:57:12.048Z,91.03
2023-01-29T00:58:12.041Z,91.24
2023-01-29T00:59:12.031Z,91.39
2023-01-29T01:00:12.045Z,91.71
2023-01-29T01:01:12.086Z,91.81
2023-01-29T01:02:12.083Z,92.02
2023-01-29T01:03:11.989Z,92.02
2023-01-29T01:04:11.986Z,92.23
2023-01-29T01:05:11.958Z,92.27
2023-01-29T01:06:12.737Z,92.58
2023-01-29T01:07:17.133Z,92.69
2023-01-29T01:08:11.940Z,92.69
2023-01-29T01:09:11.919Z,92.90
2023-01-29T01:10:11.917Z,93.11
2023-01-29T01:11:11.906Z,93.26
2023-01-29T01:12:11.886Z,93.47
2023-01-29T01:13:11.884Z,93.37
2023-01-29T01:14:11.891Z,93.57
2023-01-29T01:15:12.064Z,93.79
2023-01-29T01:16:11.884Z,93.93
2023-01-29T01:17:11.847Z,94.25
2023-01-29T01:18:11.836Z,94.46
2023-01-29T01:19:11.911Z,94.56
2023-01-29T01:20:11.798Z,94.35
2023-01-29T01:21:12.344Z,94.35
2023-01-29T01:22:11.809Z,94.78
2023-01-29T01:23:11.779Z,94.88
2023-01-29T01:24:11.820Z,94.78
2023-01-29T01:25:11.769Z,95.09
2023-01-29T01:26:11.764Z,95.40
2023-01-29T01:27:11.749Z,95.36
2023-01-29T01:28:11.737Z,95.26
2023-01-29T01:29:11.718Z,95.04
2023-01-29T01:30:11.711Z,94.84
2023-01-29T01:31:11.812Z,94.73
2023-01-29T01:32:11.681Z,94.73
2023-01-29T01:33:11.709Z,94.62
2023-01-29T01:34:11.675Z,94.58
2023-01-29T01:35:11.711Z,94.48
2023-01-29T01:36:11.637Z,94.27
2023-01-29T01:37:11.686Z,94.37
2023-01-29T01:38:12.449Z,94.27
2023-01-29T01:39:11.620Z,94.27
2023-01-29T01:40:11.610Z,94.12
2023-01-29T01:41:11.603Z,94.01
2023-01-29T01:42:11.680Z,93.80
2023-01-29T01:43:11.849Z,93.80
2023-01-29T01:44:11.576Z,93.44
2023-01-29T01:45:11.560Z,93.13
2023-01-29T01:46:11.589Z,92.92
2023-01-29T01:47:11.541Z,92.92
2023-01-29T01:48:11.537Z,93.02
2023-01-29T01:49:11.514Z,93.19
2023-01-29T01:50:11.513Z,93.19
2023-01-29T01:51:11.492Z,92.88
2023-01-29T01:52:11.504Z,92.77
2023-01-29T01:53:11.472Z,92.57
2023-01-29T01:54:11.493Z,92.57
2023-01-29T01:55:11.457Z,92.57
2023-01-29T01:56:11.454Z,92.57
2023-01-29T01:57:11.435Z,92.42
2023-01-29T01:58:11.430Z,92.63
2023-01-29T01:59:11.437Z,92.00
2023-01-29T02:00:11.432Z,91.53
2023-01-29T02:01:11.435Z,91.01
2023-01-29T02:02:11.469Z,91.01
2023-01-29T02:03:11.375Z,91.01
2023-01-29T02:04:11.363Z,90.80
2023-01-29T02:05:11.343Z,90.70
2023-01-29T02:06:11.397Z,90.59
2023-01-29T02:07:11.319Z,90.23
2023-01-29T02:08:11.334Z,90.45
2023-01-29T02:09:11.315Z,90.23
2023-01-29T02:10:11.304Z,90.76
2023-01-29T02:11:11.285Z,90.34
2023-01-29T02:12:11.303Z,90.13
2023-01-29T02:13:11.277Z,90.55
2023-01-29T02:14:11.267Z,90.23
2023-01-29T02:15:11.633Z,89.82
2023-01-29T02:16:11.273Z,89.61
2023-01-29T02:17:11.308Z,90.13
2023-01-29T02:18:11.230Z,90.23
2023-01-29T02:19:11.205Z,89.57
2023-01-29T02:20:11.194Z,89.36
2023-01-29T02:21:11.175Z,89.15
2023-01-29T02:22:11.191Z,89.04
2023-01-29T02:23:11.162Z,88.62
2023-01-29T02:24:11.312Z,88.73
2023-01-29T02:25:11.162Z,88.62
2023-01-29T02:26:11.127Z,87.96
2023-01-29T02:27:11.156Z,88.06
2023-01-29T02:28:11.146Z,87.85
2023-01-29T02:29:11.127Z,88.06
2023-01-29T02:30:11.094Z,87.96
2023-01-29T02:31:11.101Z,88.21
2023-01-29T02:32:11.137Z,87.99
2023-01-29T02:33:11.128Z,87.99
2023-01-29T02:34:11.057Z,87.99
2023-01-29T02:35:11.062Z,88.21
2023-01-29T02:36:11.037Z,88.42
2023-01-29T02:37:11.034Z,88.42
2023-01-29T02:38:11.015Z,88.10
2023-01-29T02:39:11.027Z,87.89
2023-01-29T02:40:11.007Z,87.99
2023-01-29T02:41:11.001Z,88.21
2023-01-29T02:42:10.970Z,88.52
2023-01-29T02:43:10.965Z,88.94
2023-01-29T02:44:10.970Z,88.31
2023-01-29T03:12:38.542Z,90.03
2023-01-29T03:13:36.713Z,90.34
2023-01-29T03:14:36.695Z,90.23
2023-01-29T03:15:36.686Z,89.82
2023-01-29T03:16:36.795Z,90.03
2023-01-29T03:17:37.391Z,90.13
2023-01-29T03:18:36.668Z,90.34
2023-01-29T03:19:36.668Z,90.55
2023-01-29T03:20:36.643Z,90.66
2023-01-29T03:21:36.646Z,90.66
2023-01-29T03:22:36.618Z,90.87
2023-01-29T03:23:36.621Z,91.12
2023-01-29T03:24:36.599Z,91.28
2023-01-29T03:25:37.107Z,91.60
2023-01-29T03:26:36.628Z,91.81
2023-01-29T03:27:36.569Z,92.02
2023-01-29T03:28:36.583Z,92.06
2023-01-29T03:29:36.554Z,92.27
2023-01-29T03:30:36.542Z,92.38
2023-01-29T03:31:36.620Z,92.38
2023-01-29T03:32:36.523Z,92.38
2023-01-29T03:33:36.538Z,92.58
2023-01-29T03:34:36.487Z,92.69
2023-01-29T03:35:37.325Z,92.69
2023-01-29T03:36:36.475Z,92.90
2023-01-29T03:37:36.488Z,93.32
2023-01-29T03:38:36.470Z,93.74
2023-01-29T03:39:36.460Z,93.74
2023-01-29T03:40:36.450Z,93.84
2023-01-29T03:41:36.430Z,93.70
2023-01-29T03:42:36.412Z,93.70
2023-01-29T03:43:36.413Z,93.59
2023-01-29T03:44:36.390Z,93.49
2023-01-29T03:45:36.514Z,93.17
2023-01-29T03:46:36.388Z,92.65
2023-01-29T03:47:36.370Z,92.54
2023-01-29T03:48:36.363Z,92.23
2023-01-29T03:49:36.360Z,92.33
2023-01-29T03:50:36.439Z,91.91
2023-01-29T03:51:36.341Z,92.13
2023-01-29T03:52:36.348Z,92.13
2023-01-29T03:53:36.316Z,91.81
2023-01-29T03:54:36.288Z,91.81
2023-01-29T03:55:36.313Z,92.02
2023-01-29T03:56:36.291Z,92.33
2023-01-29T03:57:36.279Z,92.33
2023-01-29T03:58:36.278Z,92.33
2023-01-29T03:59:36.244Z,92.02
2023-01-29T04:00:36.274Z,92.02
2023-01-29T04:01:36.258Z,92.02
2023-01-29T04:02:36.217Z,92.13
2023-01-29T04:03:36.213Z,91.81
2023-01-29T04:04:36.210Z,91.71
2023-01-29T04:05:36.201Z,91.60
2023-01-29T04:06:36.167Z,91.39
2023-01-29T04:07:36.173Z,91.50
2023-01-29T04:08:36.155Z,91.91
2023-01-29T04:09:36.156Z,92.16
2023-01-29T04:10:36.191Z,92.06
2023-01-29T04:11:36.127Z,92.27
2023-01-29T04:12:36.119Z,92.38
2023-01-29T04:13:36.118Z,92.38
2023-01-29T04:14:36.104Z,92.38
2023-01-29T04:15:36.093Z,92.48
2023-01-29T04:16:36.098Z,92.63
2023-01-29T04:17:36.074Z,92.63
2023-01-29T04:18:36.066Z,92.73
2023-01-29T04:19:36.086Z,92.94
2023-01-29T04:20:36.055Z,93.15
2023-01-29T04:21:36.027Z,93.40
2023-01-29T04:22:36.005Z,93.51
2023-01-29T04:23:36.027Z,93.51
2023-01-29T04:24:35.995Z,93.51
2023-01-29T04:25:36.092Z,93.62
2023-01-29T04:26:35.968Z,93.87
2023-01-29T04:27:35.998Z,94.18
2023-01-29T04:28:35.968Z,94.71
2023-01-29T04:29:35.963Z,94.92
2023-01-29T04:30:35.997Z,95.02
2023-01-29T04:31:36.140Z,95.28
2023-01-29T04:32:35.921Z,95.17
2023-01-29T04:33:35.939Z,95.17
2023-01-29T04:34:35.902Z,95.17
2023-01-29T04:35:35.901Z,95.21
2023-01-29T04:36:35.878Z,95.32
2023-01-29T04:37:35.874Z,95.64
2023-01-29T04:38:35.866Z,95.78
2023-01-29T04:39:36.004Z,95.89
2023-01-29T04:40:35.849Z,95.99
2023-01-29T04:41:35.841Z,96.20
2023-01-29T04:42:35.814Z,96.25
2023-01-29T04:43:35.822Z,96.45
2023-01-29T04:44:35.791Z,96.56
2023-01-29T04:45:35.809Z,96.56
2023-01-29T04:46:35.940Z,96.77
2023-01-29T04:47:35.828Z,96.81
2023-01-29T04:48:35.754Z,96.81
2023-01-29T04:49:35.750Z,96.92
2023-01-29T04:50:35.732Z,96.97
2023-01-29T04:51:35.831Z,97.17
2023-01-29T04:52:35.720Z,97.17
2023-01-29T04:53:35.730Z,97.22
2023-01-29T04:54:35.700Z,97.53
2023-01-29T04:55:35.690Z,97.85
2023-01-29T04:56:36.358Z,98.07
2023-01-29T04:57:35.685Z,98.27
2023-01-29T04:58:35.644Z,98.49
2023-01-29T04:59:35.660Z,98.59
2023-01-29T05:00:35.632Z,98.80
2023-01-29T05:01:35.738Z,99.01
2023-01-29T05:02:35.635Z,99.16
2023-01-29T05:03:35.603Z,99.27
2023-01-29T05:04:35.592Z,99.69
2023-01-29T05:05:35.589Z,99.90
2023-01-29T05:06:35.554Z,99.99
2023-01-29T05:07:35.568Z,99.99
2023-01-29T05:08:35.549Z,99.99
2023-01-29T05:09:35.537Z,99.99
2023-01-29T05:10:35.524Z,99.99
2023-01-29T05:11:35.514Z,99.99
2023-01-29T05:12:35.495Z,99.96
2023-01-29T05:13:35.502Z,99.64
2023-01-29T05:14:35.496Z,99.43
2023-01-29T05:15:35.482Z,99.22
2023-01-29T05:16:35.468Z,99.11
2023-01-29T05:17:35.471Z,98.95
2023-01-29T05:18:35.441Z,98.85
2023-01-29T05:19:35.525Z,98.53
2023-01-29T05:20:35.521Z,98.68
2023-01-29T05:21:35.416Z,99.10
2023-01-29T05:22:35.404Z,99.10
2023-01-29T05:23:35.423Z,99.21
2023-01-29T05:24:35.386Z,99.41
2023-01-29T05:25:35.377Z,99.63
2023-01-29T05:26:35.402Z,99.73
2023-01-29T05:27:35.365Z,99.84
2023-01-29T05:28:35.336Z,99.84
2023-01-29T05:29:35.385Z,99.84
2023-01-29T05:30:36.122Z,99.73
2023-01-29T05:31:35.358Z,99.63
2023-01-29T05:32:35.323Z,99.52
2023-01-29T05:33:35.312Z,99.41
2023-01-29T05:34:35.368Z,99.41
2023-01-29T05:35:35.279Z,99.31
2023-01-29T05:36:35.280Z,99.31
2023-01-29T05:37:35.289Z,99.10
2023-01-29T05:38:35.268Z,98.89
2023-01-29T05:39:35.236Z,98.72
2023-01-29T05:40:35.218Z,98.72
2023-01-29T05:41:35.236Z,99.04
2023-01-29T05:42:35.201Z,99.25
2023-01-29T05:43:35.229Z,99.31
2023-01-29T05:44:35.176Z,99.10
2023-01-29T05:45:35.183Z,98.89
2023-01-29T05:46:35.206Z,98.61
2023-01-29T05:47:35.360Z,98.51
2023-01-29T05:48:35.146Z,98.30
2023-01-29T05:49:38.638Z,98.19
2023-01-29T05:50:35.179Z,98.30
2023-01-29T05:51:35.133Z,98.30
2023-01-29T05:52:35.139Z,98.09
2023-01-29T05:53:35.328Z,98.30
2023-01-29T05:54:35.128Z,98.41
2023-01-29T05:55:35.366Z,98.41
2023-01-29T05:56:35.863Z,98.41
2023-01-29T05:57:35.566Z,98.41
2023-01-29T05:58:35.053Z,98.51
2023-01-29T05:59:35.045Z,98.61
2023-01-29T06:00:35.193Z,98.30
2023-01-29T06:01:35.923Z,98.19
2023-01-29T06:02:35.042Z,97.88
2023-01-29T06:03:35.002Z,97.67
2023-01-29T06:04:34.978Z,97.67
2023-01-29T06:05:35.011Z,97.56
2023-01-29T06:06:35.018Z,97.56
2023-01-29T06:07:34.978Z,97.56
2023-01-29T06:08:35.006Z,97.56
2023-01-29T06:09:34.932Z,97.67
2023-01-29T06:10:34.982Z,97.77
2023-01-29T06:11:34.919Z,97.99
2023-01-29T06:12:35.004Z,98.09
2023-01-29T06:13:34.962Z,98.19
2023-01-29T06:14:34.959Z,98.05
2023-01-29T06:15:34.895Z,98.05
2023-01-29T06:16:34.954Z,97.83
2023-01-29T06:17:34.911Z,97.63
2023-01-29T06:18:35.869Z,97.52
2023-01-29T06:19:35.044Z,97.31
2023-01-29T06:20:34.870Z,97.20
2023-01-29T06:21:34.857Z,97.16
2023-01-29T06:22:34.818Z,97.27
2023-01-29T06:23:34.809Z,97.58
2023-01-29T06:24:34.816Z,97.79
2023-01-29T06:25:34.851Z,97.79
2023-01-29T06:26:34.790Z,97.69
2023-01-29T06:27:34.762Z,97.64
2023-01-29T06:28:35.540Z,97.53
2023-01-29T06:29:34.750Z,97.53
2023-01-29T06:30:34.827Z,97.64
2023-01-29T06:31:39.540Z,97.75
2023-01-29T06:32:34.771Z,97.85
2023-01-29T06:33:34.692Z,98.07
2023-01-29T06:34:34.682Z,98.07
2023-01-29T06:35:34.713Z,97.96
2023-01-29T06:36:34.751Z,97.81
2023-01-29T06:37:34.686Z,97.91
2023-01-29T06:38:34.661Z,97.91
2023-01-29T06:39:34.646Z,97.91
2023-01-29T06:40:34.683Z,97.91
2023-01-29T06:41:35.421Z,97.91
2023-01-29T06:42:34.650Z,97.91
2023-01-29T06:43:35.339Z,97.91
2023-01-29T06:44:34.579Z,97.71
2023-01-29T06:45:34.895Z,97.81
2023-01-29T06:46:34.588Z,97.97
2023-01-29T06:47:34.565Z,97.97
2023-01-29T06:48:34.607Z,97.97
2023-01-29T06:49:34.549Z,97.87
2023-01-29T06:50:35.325Z,97.66
2023-01-29T06:51:35.481Z,97.55
2023-01-29T06:52:34.513Z,97.55
2023-01-29T06:53:34.517Z,97.55
2023-01-29T06:54:34.536Z,97.55
2023-01-29T06:55:34.845Z,97.45
2023-01-29T06:56:34.471Z,97.24
2023-01-29T06:57:34.467Z,97.24
2023-01-29T06:58:34.447Z,97.09
2023-01-29T06:59:34.449Z,96.98
2023-01-29T07:00:34.484Z,96.77
2023-01-29T07:01:36.444Z,96.03
2023-01-29T07:02:34.413Z,95.83
2023-01-29T07:03:34.437Z,95.83
2023-01-29T07:04:34.410Z,95.26
2023-01-29T07:05:34.389Z,94.62
2023-01-29T07:06:34.402Z,94.21
2023-01-29T07:07:34.647Z,94.42
2023-01-29T07:08:34.327Z,94.27
2023-01-29T07:09:34.326Z,94.06
2023-01-29T07:10:34.370Z,93.85
2023-01-29T07:11:34.394Z,93.74
2023-01-29T07:12:34.493Z,93.63
2023-01-29T07:13:34.312Z,93.22
2023-01-29T07:14:34.285Z,92.69
2023-01-29T07:15:36.364Z,92.58
2023-01-29T07:16:34.367Z,92.33
2023-01-29T07:17:34.259Z,92.23
2023-01-29T07:18:34.922Z,92.23
2023-01-29T07:19:35.153Z,92.33
2023-01-29T07:20:34.324Z,92.54
2023-01-29T07:21:35.221Z,92.23
2023-01-29T07:22:34.502Z,91.91
2023-01-29T07:23:34.251Z,91.91
2023-01-29T07:24:34.291Z,91.91
2023-01-29T07:25:34.195Z,91.91
2023-01-29T07:26:34.251Z,91.81
2023-01-29T07:27:34.223Z,91.77
2023-01-29T07:28:34.188Z,91.66
2023-01-29T07:29:34.169Z,91.45
2023-01-29T07:30:34.217Z,91.87
2023-01-29T07:31:34.336Z,92.08
2023-01-29T07:32:35.593Z,91.66
2023-01-29T07:33:34.062Z,91.24
2023-01-29T07:34:34.092Z,91.24
2023-01-29T07:35:34.159Z,90.92
2023-01-29T07:36:34.587Z,90.19
2023-01-29T07:37:34.144Z,89.98
2023-01-29T07:38:34.240Z,89.31
2023-01-29T07:39:34.074Z,89.52
2023-01-29T07:40:34.084Z,89.21
2023-01-29T07:41:34.036Z,89.00
2023-01-29T07:42:33.995Z,88.26
2023-01-29T07:43:33.988Z,88.68
2023-01-29T07:44:33.970Z,88.05
2023-01-29T07:45:34.015Z,88.16
2023-01-29T07:46:33.952Z,88.85
2023-01-29T07:47:34.016Z,88.54
2023-01-29T07:48:33.924Z,88.43
2023-01-29T07:49:33.919Z,88.22
2023-01-29T07:50:34.051Z,87.28
2023-01-29T07:51:33.889Z,86.54
2023-01-29T07:52:33.882Z,87.24
2023-01-29T07:53:33.881Z,87.13
2023-01-29T07:54:33.858Z,86.82
2023-01-29T07:55:34.595Z,86.61
2023-01-29T07:56:33.846Z,85.25
2023-01-29T07:57:33.896Z,85.98
2023-01-29T07:58:35.735Z,85.56
2023-01-29T07:59:34.048Z,85.00
2023-01-29T08:00:34.396Z,85.31
2023-01-29T08:01:33.803Z,84.79
2023-01-29T08:02:33.808Z,84.85
2023-01-29T08:03:33.765Z,85.06
2023-01-29T08:04:33.796Z,84.64
2023-01-29T08:05:33.794Z,84.29
2023-01-29T08:06:33.745Z,83.77
2023-01-29T08:07:33.727Z,83.14
2023-01-29T08:08:34.535Z,82.62
2023-01-29T08:09:33.708Z,82.09
2023-01-29T08:10:33.806Z,81.99
2023-01-29T08:11:33.681Z,82.58
2023-01-29T08:12:33.708Z,80.90
2023-01-29T08:13:33.820Z,80.80
2023-01-29T08:14:33.657Z,80.55
2023-01-29T08:15:33.659Z,80.10
2023-01-29T08:16:33.723Z,79.79
2023-01-29T08:17:33.625Z,79.64
2023-01-29T08:18:33.644Z,79.08
2023-01-29T08:19:33.619Z,78.14
2023-01-29T08:20:33.607Z,78.67
2023-01-29T08:21:33.591Z,77.73
2023-01-29T08:22:33.595Z,77.27
2023-01-29T08:23:33.558Z,77.38
2023-01-29T08:24:47.553Z,77.38
2023-01-29T08:25:34.637Z,76.86
2023-01-29T08:26:33.653Z,76.54
2023-01-29T08:27:33.519Z,77.59
2023-01-29T08:28:33.554Z,77.90
2023-01-29T08:29:33.517Z,77.80
2023-01-29T08:30:33.523Z,77.90
2023-01-29T08:31:33.595Z,77.27
2023-01-29T08:32:33.470Z,77.59
2023-01-29T08:33:38.989Z,78.59
2023-01-29T08:34:34.457Z,77.66
2023-01-29T08:35:33.453Z,77.72
2023-01-29T08:36:33.430Z,76.79
2023-01-29T08:37:33.412Z,76.16
2023-01-29T08:38:33.413Z,76.57
2023-01-29T08:39:34.470Z,76.86
2023-01-29T08:40:33.840Z,76.09
2023-01-29T08:41:33.364Z,74.63
2023-01-29T08:42:33.375Z,74.15
2023-01-29T08:43:33.359Z,74.46
2023-01-29T08:44:34.154Z,74.35
2023-01-29T08:45:33.321Z,74.15
2023-01-29T08:46:33.323Z,74.32
2023-01-29T08:47:33.294Z,74.84
2023-01-29T08:48:33.384Z,74.70
2023-01-29T08:49:33.304Z,74.63
2023-01-29T08:50:33.284Z,74.91
2023-01-29T08:51:33.290Z,74.60
2023-01-29T08:52:33.273Z,73.24
2023-01-29T08:53:33.300Z,73.97
2023-01-29T08:54:33.234Z,73.24
2023-01-29T08:55:33.221Z,73.49
2023-01-29T08:56:33.270Z,73.69
2023-01-29T08:57:33.194Z,73.59
2023-01-29T08:58:33.573Z,73.35
2023-01-29T08:59:33.176Z,72.62
2023-01-29T09:00:33.265Z,73.24
2023-01-29T09:01:33.216Z,71.26
2023-01-29T09:02:33.302Z,71.65
2023-01-29T09:03:33.142Z,71.02
2023-01-29T09:04:33.126Z,70.92
2023-01-29T09:05:33.119Z,69.98
2023-01-29T09:06:33.117Z,72.51
2023-01-29T09:07:33.116Z,70.64
2023-01-29T09:08:33.097Z,71.37
2023-01-29T09:09:33.070Z,71.16
2023-01-29T09:10:33.072Z,70.84
2023-01-29T09:11:33.058Z,71.78
2023-01-29T09:12:33.047Z,71.05
2023-01-29T09:13:33.036Z,71.99
2023-01-29T09:14:33.036Z,71.37
2023-01-29T09:15:33.011Z,71.89
2023-01-29T09:16:33.078Z,71.37
2023-01-29T09:17:32.989Z,71.26
2023-01-29T09:18:32.989Z,71.37
2023-01-29T09:19:32.977Z,70.53
2023-01-29T09:20:32.971Z,70.92
2023-01-29T09:21:32.949Z,71.12
2023-01-29T09:22:32.941Z,69.56
2023-01-29T09:23:32.931Z,70.09
2023-01-29T09:24:33.127Z,70.47
2023-01-29T09:25:32.980Z,69.95
2023-01-29T09:26:32.910Z,68.91
2023-01-29T09:27:32.890Z,68.70
2023-01-29T09:28:32.887Z,69.35
2023-01-29T09:29:35.628Z,70.47
2023-01-29T09:30:32.893Z,69.64
2023-01-29T09:31:32.985Z,69.53
2023-01-29T09:33:33.825Z,68.80
2023-01-29T09:34:32.833Z,68.80
2023-01-29T09:35:32.812Z,69.53
2023-01-29T09:36:32.815Z,68.80
2023-01-29T09:37:32.783Z,69.07
2023-01-29T09:38:32.791Z,69.70
2023-01-29T09:39:32.893Z,70.12
2023-01-29T09:40:33.445Z,70.43
2023-01-29T09:41:32.774Z,69.91
2023-01-29T09:42:34.343Z,69.87
2023-01-29T09:43:32.729Z,69.67
2023-01-29T09:44:32.733Z,69.81
2023-01-29T09:45:32.917Z,69.47
2023-01-29T09:46:32.697Z,68.29
2023-01-29T09:47:32.701Z,67.46
2023-01-29T09:48:32.694Z,68.19
2023-01-29T09:49:32.655Z,67.15
2023-01-29T09:50:32.666Z,67.18
2023-01-29T09:51:32.635Z,68.50
2023-01-29T09:52:32.636Z,68.08
2023-01-29T09:53:32.644Z,67.36
2023-01-29T09:54:32.606Z,66.87
2023-01-29T09:55:32.643Z,68.15
2023-01-29T09:56:32.637Z,68.07
2023-01-29T09:57:32.588Z,68.73
2023-01-29T09:58:32.574Z,68.63
2023-01-29T09:59:32.555Z,68.97
2023-01-29T10:00:32.550Z,69.46
2023-01-29T10:01:32.657Z,70.26
2023-01-29T10:02:32.570Z,69.12
2023-01-29T10:03:32.519Z,68.77
2023-01-29T10:04:32.538Z,68.32
2023-01-29T10:05:32.490Z,69.15
2023-01-29T10:06:32.499Z,69.68
2023-01-29T10:07:32.467Z,69.12
2023-01-29T10:08:32.468Z,69.33
2023-01-29T10:09:32.455Z,67.85
2023-01-29T10:10:32.450Z,66.94
2023-01-29T10:11:32.439Z,68.19
2023-01-29T10:12:32.438Z,66.84
2023-01-29T10:13:32.657Z,67.33
2023-01-29T10:14:32.423Z,67.12
2023-01-29T10:15:32.398Z,67.33
2023-01-29T10:16:32.497Z,67.22
2023-01-29T10:17:32.362Z,66.36
2023-01-29T10:18:32.352Z,66.75
2023-01-29T10:19:32.347Z,66.22
2023-01-29T10:20:32.341Z,64.87
2023-01-29T10:21:32.331Z,64.70
2023-01-29T10:22:32.316Z,65.14
2023-01-29T10:23:34.381Z,65.35
2023-01-29T10:24:32.314Z,65.66
2023-01-29T10:25:32.283Z,65.91
2023-01-29T10:26:32.331Z,65.23
2023-01-29T10:27:32.271Z,64.69
2023-01-29T10:28:32.252Z,65.58
2023-01-29T10:29:32.400Z,64.54
2023-01-29T10:30:32.237Z,63.60
2023-01-29T10:31:32.308Z,65.06
2023-01-29T10:32:32.212Z,64.72
2023-01-29T10:33:48.731Z,64.04
2023-01-29T10:34:33.194Z,64.80
2023-01-29T10:35:32.164Z,65.32
2023-01-29T10:36:32.180Z,64.42
2023-01-29T10:37:32.157Z,64.49
2023-01-29T10:38:32.150Z,64.04
2023-01-29T10:39:32.129Z,63.71
2023-01-29T10:40:32.115Z,63.29
2023-01-29T10:41:32.249Z,62.95
2023-01-29T10:42:32.108Z,62.33
2023-01-29T10:43:32.097Z,63.16
2023-01-29T10:44:32.105Z,64.75
2023-01-29T10:45:32.080Z,65.47
2023-01-29T10:46:32.048Z,64.87
2023-01-29T10:47:32.141Z,65.91
2023-01-29T10:48:32.045Z,64.54
2023-01-29T10:49:32.028Z,64.33
2023-01-29T10:50:32.022Z,64.15
2023-01-29T10:51:32.047Z,67.30
2023-01-29T10:52:32.001Z,68.99
2023-01-29T10:53:31.998Z,67.95
2023-01-29T10:54:31.962Z,67.15
2023-01-29T10:55:31.980Z,67.46
2023-01-29T10:56:32.762Z,66.60
2023-01-29T10:57:32.767Z,67.64
2023-01-29T10:58:31.951Z,64.83
2023-01-29T10:59:31.940Z,64.90
2023-01-29T11:00:31.916Z,64.39
2023-01-29T11:01:32.793Z,66.08
2023-01-29T11:02:31.910Z,68.22
2023-01-29T11:03:31.957Z,66.00
2023-01-29T11:04:31.863Z,66.00
2023-01-29T11:05:32.742Z,65.87
2023-01-29T11:06:31.937Z,65.04
2023-01-29T11:07:31.843Z,66.71
2023-01-29T11:08:31.835Z,66.60
2023-01-29T11:10:31.802Z,69.20
2023-01-29T11:11:31.803Z,66.08
2023-01-29T11:12:31.797Z,64.46
2023-01-29T11:13:31.774Z,64.02
2023-01-29T11:14:31.984Z,63.44
2023-01-29T11:15:32.020Z,62.79
2023-01-29T11:16:31.775Z,62.27
2023-01-29T11:17:31.747Z,63.87
2023-01-29T11:18:31.753Z,61.15
2023-01-29T11:19:31.751Z,59.94
2023-01-29T11:20:31.724Z,60.56
2023-01-29T11:21:31.737Z,60.40
2023-01-29T11:22:31.709Z,58.20
2023-01-29T11:23:31.669Z,59.39
2023-01-29T11:24:32.453Z,56.60
2023-01-29T11:25:31.652Z,57.78
2023-01-29T11:26:31.627Z,55.26
2023-01-29T11:27:31.742Z,54.66
2023-01-29T11:28:31.818Z,52.09
2023-01-29T11:29:32.083Z,54.05
2023-01-29T11:30:31.718Z,52.89
2023-01-29T11:31:31.676Z,52.19
2023-01-29T11:32:31.579Z,52.81
2023-01-29T11:33:31.560Z,52.71
2023-01-29T11:34:31.558Z,53.40
2023-01-29T11:35:31.569Z,54.74
2023-01-29T11:36:31.521Z,53.38
2023-01-29T11:37:31.530Z,53.74
2023-01-29T11:38:31.493Z,52.61
2023-01-29T11:39:31.503Z,51.73
2023-01-29T11:40:31.478Z,52.27
2023-01-29T11:41:31.483Z,53.12
2023-01-29T11:42:31.461Z,52.78
2023-01-29T11:43:31.459Z,53.02
2023-01-29T11:44:31.437Z,53.53
2023-01-29T11:45:31.427Z,52.94
2023-01-29T11:46:31.456Z,54.51
2023-01-29T11:47:31.414Z,54.05
2023-01-29T11:48:31.375Z,55.00
2023-01-29T11:49:31.440Z,55.57
2023-01-29T11:50:31.377Z,57.32
2023-01-29T11:51:31.358Z,56.83
2023-01-29T11:52:31.349Z,58.58
2023-01-29T11:53:31.355Z,57.50
2023-01-29T11:54:31.322Z,54.35
2023-01-29T11:55:44.365Z,56.13
2023-01-29T11:56:32.410Z,57.57
2023-01-29T11:57:31.300Z,54.48
2023-01-29T11:58:31.277Z,55.21
2023-01-29T11:59:31.310Z,56.49
2023-01-29T12:00:31.258Z,55.38
2023-01-29T12:01:31.248Z,57.53
2023-01-29T12:02:31.256Z,61.25
2023-01-29T12:03:31.276Z,62.91
2023-01-29T12:04:31.222Z,60.60
2023-01-29T12:05:31.234Z,58.51
2023-01-29T12:06:31.193Z,58.48
2023-01-29T12:07:31.205Z,56.77
2023-01-29T12:08:31.179Z,55.64
2023-01-29T12:09:31.196Z,57.24
2023-01-29T12:10:31.157Z,54.84
2023-01-29T12:11:31.149Z,56.77
2023-01-29T12:12:31.126Z,56.49
2023-01-29T12:13:31.142Z,55.57
2023-01-29T12:14:31.124Z,56.21
2023-01-29T12:15:31.113Z,55.98
2023-01-29T12:16:31.185Z,56.39
2023-01-29T12:17:32.136Z,56.59
2023-01-29T12:18:31.084Z,56.29
2023-01-29T12:19:31.058Z,55.95
2023-01-29T12:20:31.083Z,56.18
2023-01-29T12:21:31.747Z,55.62
2023-01-29T12:22:31.041Z,57.55
2023-01-29T12:23:31.051Z,57.65
2023-01-29T12:24:30.998Z,58.25
2023-01-29T12:25:31.009Z,56.24
2023-01-29T12:26:30.997Z,57.81
2023-01-29T12:27:31.020Z,58.72
2023-01-29T12:28:30.959Z,58.28
2023-01-29T12:29:30.953Z,57.94
2023-01-29T12:30:30.977Z,57.53
2023-01-29T12:31:30.952Z,56.98
2023-01-29T12:32:31.719Z,56.34
2023-01-29T12:33:30.918Z,56.73
2023-01-29T12:34:30.895Z,56.05
2023-01-29T12:35:30.894Z,56.03
2023-01-29T12:36:30.864Z,54.69
2023-01-29T12:37:30.869Z,55.95
2023-01-29T12:38:30.854Z,55.74
2023-01-29T12:39:30.840Z,54.38
2023-01-29T12:40:30.841Z,57.99
2023-01-29T12:41:30.843Z,57.78
2023-01-29T12:42:30.803Z,58.33
2023-01-29T12:43:30.805Z,58.28
2023-01-29T12:44:30.839Z,59.13
2023-01-29T12:45:30.890Z,58.35
2023-01-29T12:46:31.580Z,57.19
2023-01-29T12:47:30.770Z,57.65
2023-01-29T12:48:30.753Z,57.62
2023-01-29T12:49:30.739Z,55.72
2023-01-29T12:50:30.845Z,54.51
2023-01-29T12:51:30.719Z,54.53
2023-01-29T12:52:30.700Z,54.41
2023-01-29T12:53:30.707Z,54.10
2023-01-29T12:54:30.699Z,55.05
2023-01-29T12:55:30.664Z,56.46
2023-01-29T12:56:31.621Z,59.90
2023-01-29T12:57:30.662Z,59.72
2023-01-29T12:58:30.633Z,59.00
2023-01-29T12:59:30.653Z,59.20
2023-01-29T13:00:31.421Z,58.89
2023-01-29T13:01:30.610Z,60.44
2023-01-29T13:02:30.591Z,59.05
2023-01-29T13:03:30.659Z,60.60
2023-01-29T13:04:30.574Z,62.01
2023-01-29T13:05:30.623Z,62.01
2023-01-29T13:06:30.548Z,63.53
2023-01-29T13:07:30.537Z,64.56
2023-01-29T13:08:30.625Z,61.85
2023-01-29T13:09:30.516Z,61.92
2023-01-29T13:10:30.496Z,61.48
2023-01-29T13:11:30.494Z,59.75
2023-01-29T13:12:30.506Z,63.06
2023-01-29T13:13:30.477Z,61.35
2023-01-29T13:14:30.448Z,58.94
2023-01-29T13:15:30.471Z,58.43
2023-01-29T13:16:30.571Z,58.66
2023-01-29T13:17:30.484Z,59.67
2023-01-29T13:18:30.426Z,58.69
2023-01-29T13:19:30.466Z,58.23
2023-01-29T13:20:30.669Z,59.91
2023-01-29T13:21:30.391Z,60.77